Time;durP1;ratioP1;P1;durP2;ratioP2;P2;SDS_P1;SDS_P2;PMS_P1;PMS_P2;Temp;Humidity;BMP_temperature;BMP_pressure;BME280_temperature;BME280_humidity;BME280_pressure;Samples;Min_cycle;Max_cycle;Signal;HPM_P1;HPM_P2
2021/09/30 00:00:22;;;;;;;47.70;42.90;;;;;;;13.01;79.39;100963.33;116944;1187;23535;-79
2021/09/30 00:03:10;;;;;;;50.40;45.20;;;;;;;13.04;79.49;100968.43;116995;1189;23648;-78
2021/09/30 00:05:40;;;;;;;49.90;44.50;;;;;;;13.07;79.24;100970.02;116903;1188;22621;-79
2021/09/30 00:08:10;;;;;;;53.50;48.10;;;;;;;13.10;79.32;100967.42;117061;1186;23548;-79
2021/09/30 00:10:47;;;;;;;51.10;46.00;;;;;;;13.13;79.28;100963.73;117209;1185;22839;-79
2021/09/30 00:32:52;;;;;;;43.70;39.40;;;;;;;13.22;79.53;100992.30;117091;1188;23551;-79
2021/09/30 00:46:26;;;;;;;44.80;40.60;;;;;;;13.32;79.88;100998.86;116856;1190;21903;-78
2021/09/30 00:49:03;;;;;;;45.40;40.80;;;;;;;13.36;79.83;100999.89;116778;1192;21883;-78
2021/09/30 01:32:13;;;;;;;42.60;38.50;;;;;;;13.23;79.41;101035.02;116621;1193;21892;-79
2021/09/30 01:57:49;;;;;;;38.90;35.00;;;;;;;12.95;78.99;101062.59;116912;1189;22839;-81
2021/09/30 02:18:19;;;;;;;37.00;33.20;;;;;;;12.88;78.86;101066.86;116922;1189;22899;-79
2021/09/30 02:19:15;;;;;;;28.80;25.70;;;;;;;12.62;78.32;101094.94;117119;1187;22903;-79
2021/09/30 02:30:06;;;;;;;25.50;23.10;;;;;;;12.56;77.75;101099.77;117109;1180;21890;-79
2021/09/30 02:58:33;;;;;;;21.00;18.80;;;;;;;12.38;76.98;101143.38;117003;1188;23423;-79
2021/09/30 03:01:20;;;;;;;20.80;18.50;;;;;;;12.38;76.95;101146.36;117160;1181;24139;-78
2021/09/30 03:03:56;;;;;;;19.60;17.70;;;;;;;12.37;76.78;101149.89;117135;1188;21891;-79
2021/09/30 03:06:28;;;;;;;23.30;20.10;;;;;;;12.35;76.77;101152.77;117070;1187;21897;-79
2021/09/30 03:09:00;;;;;;;21.30;19.20;;;;;;;12.33;76.68;101150.50;117135;1187;21960;-79
2021/09/30 03:11:33;;;;;;;22.10;20.00;;;;;;;12.32;76.68;101156.80;117076;1188;21885;-78
2021/09/30 03:14:05;;;;;;;23.30;20.80;;;;;;;12.32;76.70;101161.92;117109;1187;23534;-78
2021/09/30 03:16:46;;;;;;;23.50;21.20;;;;;;;12.32;76.82;101161.13;117174;1188;21879;-78
2021/09/30 03:22:13;;;;;;;22.30;19.10;;;;;;;12.33;76.71;101165.97;117086;1187;23505;-77
2021/09/30 03:24:48;;;;;;;21.30;19.00;;;;;;;12.34;76.77;101166.94;117145;1188;22626;-79
2021/09/30 03:27:20;;;;;;;21.20;18.80;;;;;;;12.35;76.85;101168.93;117104;1187;23441;-78
2021/09/30 03:29:49;;;;;;;20.30;18.20;;;;;;;12.37;76.78;101171.98;117099;1187;21916;-78
2021/09/30 03:32:20;;;;;;;20.90;16.70;;;;;;;12.37;76.67;101171.98;117199;1188;21897;-78
2021/09/30 03:35:11;;;;;;;15.30;13.60;;;;;;;12.36;76.68;101176.41;116830;1186;21902;-78
2021/09/30 03:37:40;;;;;;;14.20;12.60;;;;;;;12.36;76.70;101183.54;116868;1190;21894;-78
2021/09/30 03:40:10;;;;;;;13.00;11.70;;;;;;;12.36;76.61;101185.48;116744;1192;22807;-78
2021/09/30 03:42:39;;;;;;;14.20;11.50;;;;;;;12.37;76.66;101186.09;116454;1192;22630;-78
2021/09/30 03:45:10;;;;;;;16.60;10.90;;;;;;;12.38;76.57;101185.10;116393;1195;21887;-79
2021/09/30 03:47:44;;;;;;;11.50;10.30;;;;;;;12.38;76.45;101187.89;116238;1195;21984;-79
2021/09/30 03:50:22;;;;;;;12.40;10.40;;;;;;;12.37;76.38;101195.27;116463;1196;21914;-78
2021/09/30 04:00:40;;;;;;;10.20;9.20;;;;;;;12.37;75.98;101213.30;116357;1195;22067;-79
2021/09/30 04:03:11;;;;;;;9.50;8.60;;;;;;;12.36;75.99;101214.77;116259;1195;23464;-78
2021/09/30 04:05:42;;;;;;;10.20;9.10;;;;;;;12.35;76.03;101212.41;116521;1190;21906;-78
2021/09/30 04:08:11;;;;;;;10.90;9.50;;;;;;;12.36;76.04;101216.09;116495;1192;21936;-78
2021/09/30 04:10:44;;;;;;;12.10;9.40;;;;;;;12.35;75.84;101224.20;116438;1193;21902;-78
2021/09/30 04:13:14;;;;;;;10.30;9.30;;;;;;;12.35;75.79;101231.11;116702;1192;21895;-78
2021/09/30 04:15:43;;;;;;;11.50;10.50;;;;;;;12.37;75.75;101238.19;116750;1192;21980;-78
2021/09/30 04:18:13;;;;;;;9.60;8.10;;;;;;;12.38;75.61;101247.40;116762;1193;22474;-78
2021/09/30 04:20:42;;;;;;;22.20;9.20;;;;;;;12.38;75.56;101252.94;116712;1191;23451;-77
2021/09/30 04:23:12;;;;;;;10.00;7.30;;;;;;;12.38;75.53;101256.48;116839;1190;21914;-78
2021/09/30 04:25:41;;;;;;;8.60;7.00;;;;;;;12.38;75.58;101251.44;116901;1188;21875;-79
2021/09/30 04:28:10;;;;;;;9.70;8.50;;;;;;;12.40;75.42;101247.09;117159;1187;22937;-79
2021/09/30 04:30:42;;;;;;;9.70;7.90;;;;;;;12.40;75.45;101243.30;117132;1187;22320;-79
2021/09/30 04:33:34;;;;;;;10.30;7.80;;;;;;;12.40;75.41;101250.16;117133;1187;21937;-79
2021/09/30 04:36:04;;;;;;;8.60;6.90;;;;;;;12.40;75.31;101255.89;117143;1188;21895;-78
2021/09/30 04:38:33;;;;;;;9.90;6.10;;;;;;;12.40;75.19;101260.13;117046;1187;22920;-80
2021/09/30 04:41:03;;;;;;;9.70;7.20;;;;;;;12.41;75.23;101262.88;117267;1187;21888;-80
2021/09/30 04:43:34;;;;;;;8.50;6.70;;;;;;;12.40;75.13;101271.20;117223;1187;21893;-79
2021/09/30 04:46:03;;;;;;;8.20;7.40;;;;;;;12.40;75.24;101275.63;116920;1187;21914;-79
2021/09/30 04:48:37;;;;;;;8.80;7.60;;;;;;;12.39;75.08;101267.77;116863;1187;23587;-79
2021/09/30 04:51:13;;;;;;;10.00;8.70;;;;;;;12.39;74.95;101270.59;116939;1190;21884;-79
2021/09/30 04:53:43;;;;;;;9.20;8.30;;;;;;;12.41;74.96;101272.77;116915;1187;22240;-79
2021/09/30 04:56:12;;;;;;;9.30;8.00;;;;;;;12.42;74.84;101273.86;116897;1190;21882;-79
2021/09/30 04:58:49;;;;;;;9.60;6.80;;;;;;;12.42;74.87;101281.95;116903;1190;22624;-78
2021/09/30 05:01:19;;;;;;;8.30;7.50;;;;;;;12.42;74.82;101283.91;116936;1189;21931;-79
2021/09/30 05:03:51;;;;;;;9.10;7.10;;;;;;;12.42;74.81;101283.54;116974;1187;22389;-78
2021/09/30 05:06:20;;;;;;;7.80;7.10;;;;;;;12.43;74.74;101280.48;117155;1188;22894;-78
2021/09/30 05:08:50;;;;;;;6.50;5.40;;;;;;;12.42;74.56;101277.57;117209;1188;23431;-79
2021/09/30 05:11:20;;;;;;;6.70;4.90;;;;;;;12.41;74.39;101286.34;117217;1184;22914;-80
2021/09/30 05:13:54;;;;;;;8.20;4.30;;;;;;;12.40;74.27;101290.87;116904;1187;23458;-79
2021/09/30 05:16:24;;;;;;;6.80;4.50;;;;;;;12.39;73.97;101289.41;117022;1190;22906;-78
2021/09/30 05:19:30;;;;;;;6.10;4.70;;;;;;;12.37;73.98;101292.11;117003;1190;23580;-80
2021/09/30 05:22:00;;;;;;;4.50;3.90;;;;;;;12.36;73.89;101292.37;116823;1192;21895;-81
2021/09/30 05:24:29;;;;;;;5.90;4.10;;;;;;;12.36;73.80;101300.27;116789;1190;21982;-80
2021/09/30 05:26:59;;;;;;;4.90;3.80;;;;;;;12.37;73.67;101306.88;116825;1192;21917;-79
2021/09/30 05:29:29;;;;;;;7.80;3.70;;;;;;;12.37;73.38;101310.23;116603;1192;21895;-78
2021/09/30 05:32:07;;;;;;;6.10;3.80;;;;;;;12.36;73.24;101313.66;116615;1192;21879;-79
2021/09/30 05:34:41;;;;;;;5.30;3.60;;;;;;;12.39;73.17;101323.52;116849;1192;21905;-80
2021/09/30 05:37:11;;;;;;;5.80;4.20;;;;;;;12.40;73.08;101324.95;116644;1192;21870;-79
2021/09/30 05:39:43;;;;;;;7.60;4.20;;;;;;;12.41;72.95;101322.58;116805;1190;21911;-79
2021/09/30 05:42:13;;;;;;;;;;;;;;;12.41;72.78;101323.77;116781;1192;22851;-78
2021/09/30 05:44:43;;;;;;;6.60;4.90;;;;;;;12.35;72.78;101322.08;116772;1191;21890;-80
2021/09/30 05:47:12;;;;;;;14.10;6.70;;;;;;;12.35;72.77;101320.48;116820;1192;22877;-79
2021/09/30 05:49:41;;;;;;;9.40;8.20;;;;;;;12.37;72.49;101325.10;116880;1188;24140;-79
2021/09/30 05:52:34;;;;;;;9.80;7.30;;;;;;;12.37;72.39;101326.49;116954;1190;22995;-80
2021/09/30 05:55:11;;;;;;;5.90;4.80;;;;;;;12.38;72.20;101328.22;116843;1190;21931;-79
2021/09/30 05:57:43;;;;;;;7.50;4.50;;;;;;;12.39;72.00;101331.80;116893;1190;21959;-79
2021/09/30 06:00:30;;;;;;;6.00;3.50;;;;;;;12.39;71.88;101333.02;117025;1187;23510;-79
2021/09/30 06:14:42;;;;;;;4.00;3.30;;;;;;;12.43;71.40;101363.83;116774;1190;24164;-80
2021/09/30 06:17:01;;;;;;;8.20;3.80;;;;;;;12.44;71.22;101368.70;116632;1191;22923;-80
2021/09/30 06:19:35;;;;;;;6.30;3.50;;;;;;;12.44;71.23;101369.77;116889;1191;22116;-80
2021/09/30 06:22:08;;;;;;;6.50;2.80;;;;;;;12.46;71.16;101376.97;116811;1190;22242;-81
2021/09/30 06:24:39;;;;;;;7.00;2.60;;;;;;;12.50;71.19;101377.29;116797;1191;23814;-80
2021/09/30 06:27:29;;;;;;;7.40;3.00;;;;;;;12.51;71.11;101377.04;117069;1188;22217;-80
2021/09/30 06:29:59;;;;;;;5.60;3.40;;;;;;;12.53;71.12;101378.58;117115;1176;21868;-80
2021/09/30 06:32:29;;;;;;;4.90;2.60;;;;;;;12.55;70.99;101380.81;116870;1191;21886;-80
2021/09/30 06:35:18;;;;;;;4.50;2.50;;;;;;;12.57;70.93;101381.16;116814;1191;21890;-81
2021/09/30 06:37:51;;;;;;;5.40;2.80;;;;;;;12.59;70.96;101376.95;116747;1191;22626;-80
2021/09/30 06:40:21;;;;;;;4.20;2.70;;;;;;;12.62;70.87;101382.11;116819;1183;21907;-80
2021/09/30 06:42:52;;;;;;;6.10;2.70;;;;;;;12.66;70.95;101382.20;116840;1191;21915;-80
2021/09/30 06:45:40;;;;;;;5.30;3.60;;;;;;;12.70;70.78;101383.73;116906;1187;21872;-80
2021/09/30 06:48:19;;;;;;;3.40;2.50;;;;;;;12.73;70.78;101389.84;116836;1191;21892;-80
2021/09/30 06:50:53;;;;;;;7.60;3.70;;;;;;;12.75;70.63;101394.25;116997;1187;21891;-80
2021/09/30 06:53:31;;;;;;;7.30;3.40;;;;;;;12.78;70.70;101400.14;117116;1188;23437;-80
2021/09/30 06:56:15;;;;;;;7.70;5.20;;;;;;;12.81;70.60;101399.13;117171;1187;21877;-80
2021/09/30 06:59:45;;;;;;;7.60;5.30;;;;;;;12.81;70.69;101401.95;116963;1181;21927;-80
2021/09/30 07:02:41;;;;;;;9.30;4.80;;;;;;;12.83;70.76;101395.67;117210;1189;21903;-80
2021/09/30 07:05:29;;;;;;;11.30;5.50;;;;;;;12.86;70.61;101399.23;116848;1190;24225;-80
2021/09/30 07:08:08;;;;;;;6.30;4.60;;;;;;;12.91;70.71;101403.55;117010;1189;23452;-80
2021/09/30 07:10:38;;;;;;;7.30;4.00;;;;;;;12.96;70.92;101402.46;117060;1188;21920;-80
2021/09/30 07:13:08;;;;;;;5.80;4.00;;;;;;;13.02;70.61;101408.42;116868;1187;21896;-80
2021/09/30 07:15:37;;;;;;;5.90;3.60;;;;;;;13.03;70.10;101421.40;117031;1181;21904;-80
2021/09/30 07:18:19;;;;;;;5.30;3.60;;;;;;;13.02;69.80;101425.37;116514;1193;22844;-79
2021/09/30 07:21:00;;;;;;;5.60;3.60;;;;;;;13.00;69.76;101422.73;116529;1193;22744;-79
2021/09/30 07:23:31;;;;;;;8.20;3.90;;;;;;;13.04;69.90;101425.91;116675;1195;22018;-80
2021/09/30 07:26:00;;;;;;;5.00;3.50;;;;;;;13.12;70.19;101431.09;116137;1198;21893;-80
2021/09/30 07:28:29;;;;;;;4.40;3.10;;;;;;;13.23;70.34;101433.48;115770;1201;21925;-80
2021/09/30 07:30:59;;;;;;;4.90;3.00;;;;;;;13.46;70.99;101438.41;115401;1203;23173;-80
2021/09/30 07:33:28;;;;;;;4.20;3.00;;;;;;;13.82;71.42;101432.04;115375;1203;21908;-80
2021/09/30 07:35:58;;;;;;;6.90;3.20;;;;;;;14.17;70.46;101437.05;115639;1199;22621;-81
2021/09/30 07:38:28;;;;;;;4.10;2.60;;;;;;;14.51;69.72;101440.77;115909;1199;21904;-81
2021/09/30 07:40:57;;;;;;;4.10;2.90;;;;;;;14.94;69.30;101437.14;115738;1187;21910;-82
2021/09/30 07:43:26;;;;;;;6.40;2.60;;;;;;;15.34;67.19;101440.58;115941;1197;21911;-81
2021/09/30 07:45:57;;;;;;;4.40;2.50;;;;;;;15.55;64.78;101440.65;116286;1193;22904;-79
2021/09/30 07:48:26;;;;;;;5.70;2.90;;;;;;;15.80;63.88;101440.71;116593;1190;21904;-79
2021/09/30 07:50:55;;;;;;;4.10;2.50;;;;;;;15.93;61.73;101437.00;116980;1190;24121;-81
2021/09/30 07:53:24;;;;;;;6.80;3.10;;;;;;;15.97;60.61;101439.82;116837;1190;21901;-81
2021/09/30 07:55:53;;;;;;;6.20;2.40;;;;;;;16.20;61.30;101448.85;116994;1190;22193;-80
2021/09/30 07:58:24;;;;;;;7.00;3.10;;;;;;;16.65;61.51;101456.73;116939;1188;21894;-80
2021/09/30 08:00:53;;;;;;;5.40;2.60;;;;;;;17.04;59.40;101452.89;117198;1187;24192;-80
2021/09/30 08:03:25;;;;;;;5.90;2.10;;;;;;;17.26;57.73;101458.60;116889;1190;21892;-81
2021/09/30 08:06:06;;;;;;;3.40;1.50;;;;;;;17.45;56.48;101458.63;117084;1190;21947;-80
2021/09/30 08:08:55;;;;;;;6.60;2.70;;;;;;;17.73;56.09;101462.09;116958;1190;23443;-80
2021/09/30 08:11:27;;;;;;;8.00;2.80;;;;;;;18.03;55.33;101469.52;116541;1180;22882;-79
2021/09/30 08:13:56;;;;;;;4.10;2.40;;;;;;;18.21;53.80;101466.91;116446;1195;23610;-79
2021/09/30 08:16:28;;;;;;;3.70;2.30;;;;;;;18.15;51.99;101473.58;116493;1195;21895;-79
2021/09/30 08:19:02;;;;;;;4.80;2.30;;;;;;;18.02;52.08;101478.99;116424;1195;22369;-79
2021/09/30 08:21:32;;;;;;;6.60;2.30;;;;;;;17.97;52.01;101475.61;116465;1194;21919;-79
2021/09/30 08:24:02;;;;;;;5.90;3.20;;;;;;;17.79;51.20;101473.91;116514;1194;23020;-79
2021/09/30 08:26:31;;;;;;;5.00;2.80;;;;;;;17.52;50.87;101474.48;116456;1193;23468;-78
2021/09/30 08:29:00;;;;;;;8.60;3.30;;;;;;;17.30;51.36;101474.17;116757;1189;21887;-78
2021/09/30 08:31:29;;;;;;;8.10;5.00;;;;;;;17.13;51.93;101475.83;116567;1190;21982;-79
2021/09/30 08:34:03;;;;;;;5.90;3.50;;;;;;;17.08;52.70;101475.89;116991;1189;23434;-79
2021/09/30 08:36:33;;;;;;;5.20;2.50;;;;;;;17.07;52.89;101470.30;116939;1187;22894;-79
2021/09/30 08:39:06;;;;;;;6.60;3.20;;;;;;;17.05;52.78;101469.34;117128;1188;22923;-80
2021/09/30 08:41:36;;;;;;;11.50;3.20;;;;;;;17.08;53.01;101472.29;117082;1188;21993;-80
2021/09/30 08:44:06;;;;;;;5.10;2.20;;;;;;;17.14;53.08;101473.52;117263;1186;21878;-79
2021/09/30 08:46:37;;;;;;;10.60;2.30;;;;;;;17.34;53.24;101483.55;117114;1185;21978;-79
2021/09/30 08:49:07;;;;;;;13.50;3.40;;;;;;;17.61;52.97;101487.16;117025;1187;21953;-79
2021/09/30 08:51:36;;;;;;;6.50;3.00;;;;;;;17.88;52.43;101488.08;117108;1188;21916;-79
2021/09/30 08:54:05;;;;;;;6.20;2.50;;;;;;;18.10;51.22;101491.67;117231;1187;21875;-79
2021/09/30 08:56:44;;;;;;;3.20;2.10;;;;;;;18.29;50.80;101488.45;117361;1188;21891;-79
2021/09/30 08:59:19;;;;;;;7.90;2.20;;;;;;;18.41;49.86;101485.65;117485;1187;21931;-79
2021/09/30 09:02:15;;;;;;;8.20;2.10;;;;;;;18.48;49.18;101486.74;117148;1188;22923;-79
2021/09/30 09:04:53;;;;;;;10.00;2.90;;;;;;;18.50;48.79;101488.61;117269;1183;22808;-79
2021/09/30 09:07:27;;;;;;;7.20;2.80;;;;;;;18.51;48.53;101489.61;117227;1188;22978;-79
2021/09/30 09:10:01;;;;;;;6.40;2.70;;;;;;;18.45;47.99;101491.60;117105;1188;22052;-79
2021/09/30 09:12:33;;;;;;;5.10;2.50;;;;;;;18.40;48.61;101495.50;117135;1179;22978;-79
2021/09/30 09:15:04;;;;;;;6.40;3.50;;;;;;;18.42;48.42;101494.88;117026;1188;23954;-80
2021/09/30 09:17:34;;;;;;;4.50;2.10;;;;;;;18.43;48.28;101497.59;116959;1188;21910;-80
2021/09/30 09:20:04;;;;;;;6.20;2.20;;;;;;;18.40;47.82;101495.05;117450;1187;22078;-80
2021/09/30 09:22:37;;;;;;;6.40;3.00;;;;;;;18.40;47.82;101488.55;117045;1185;21936;-79
2021/09/30 09:25:13;;;;;;;4.80;2.40;;;;;;;18.48;47.89;101487.14;116886;1187;21868;-77
2021/09/30 09:27:52;;;;;;;3.90;2.10;;;;;;;18.59;47.75;101484.85;116851;1191;21896;-77
2021/09/30 09:30:33;;;;;;;5.70;2.60;;;;;;;18.72;47.35;101491.04;116541;1193;21908;-77
2021/09/30 09:33:16;;;;;;;3.50;2.00;;;;;;;18.79;47.11;101496.66;116545;1194;21890;-77
2021/09/30 09:35:58;;;;;;;6.20;2.40;;;;;;;18.80;46.75;101498.44;116531;1194;22923;-78
2021/09/30 09:38:31;;;;;;;4.60;2.40;;;;;;;18.74;46.41;101495.76;116507;1190;21896;-77
2021/09/30 09:41:05;;;;;;;4.90;2.00;;;;;;;18.69;46.59;101496.26;116362;1193;21938;-77
2021/09/30 09:43:42;;;;;;;5.10;2.30;;;;;;;18.81;47.42;101494.45;116505;1194;23458;-77
2021/09/30 09:46:20;;;;;;;5.50;2.50;;;;;;;19.01;46.94;101490.96;116652;1187;22909;-77
2021/09/30 09:49:04;;;;;;;5.90;2.60;;;;;;;19.14;46.41;101493.56;116641;1190;21880;-77
2021/09/30 09:51:47;;;;;;;5.50;2.40;;;;;;;19.33;46.21;101494.64;116794;1192;21884;-77
2021/09/30 09:54:20;;;;;;;3.80;1.80;;;;;;;19.54;45.36;101494.58;116794;1191;23441;-77
2021/09/30 09:56:53;;;;;;;3.10;1.60;;;;;;;19.53;44.33;101492.68;116770;1187;22063;-77
2021/09/30 09:59:40;;;;;;;5.40;2.70;;;;;;;19.50;44.37;101495.05;116934;1188;23435;-76
2021/09/30 10:02:30;;;;;;;4.30;2.40;;;;;;;19.42;44.27;101491.80;117093;1188;23532;-78
2021/09/30 10:05:01;;;;;;;6.20;2.20;;;;;;;19.51;44.54;101491.80;117245;1188;21891;-77
2021/09/30 10:07:32;;;;;;;5.00;3.60;;;;;;;19.66;44.55;101492.09;117185;1188;21885;-77
2021/09/30 10:10:02;;;;;;;11.70;2.70;;;;;;;19.88;44.68;101495.23;117131;1188;23572;-77
2021/09/30 10:12:32;;;;;;;5.20;2.50;;;;;;;20.15;44.51;101499.06;117174;1184;21902;-77
2021/09/30 10:15:01;;;;;;;4.80;2.40;;;;;;;20.37;43.51;101502.03;117151;1188;21876;-78
2021/09/30 10:17:30;;;;;;;5.90;2.50;;;;;;;20.59;42.93;101498.40;117083;1188;22923;-78
2021/09/30 10:20:00;;;;;;;4.60;2.10;;;;;;;20.80;42.18;101496.63;116947;1185;21930;-77
2021/09/30 10:22:29;;;;;;;5.00;1.90;;;;;;;20.98;41.60;101496.70;117080;1175;21879;-78
2021/09/30 10:24:58;;;;;;;2.80;1.00;;;;;;;21.10;40.61;101493.13;117052;1188;23585;-79
2021/09/30 10:27:28;;;;;;;5.70;1.40;;;;;;;21.06;39.50;101497.10;117104;1188;21924;-78
2021/09/30 10:29:57;;;;;;;4.10;1.60;;;;;;;21.00;39.41;101498.27;117010;1188;21879;-78
2021/09/30 10:32:28;;;;;;;6.20;1.80;;;;;;;21.02;39.36;101495.86;117006;1188;22899;-78
2021/09/30 10:35:07;;;;;;;2.70;1.30;;;;;;;20.84;38.83;101495.17;116957;1188;21889;-79
2021/09/30 10:37:36;;;;;;;4.20;1.60;;;;;;;20.89;39.51;101498.45;117074;1184;21892;-79
2021/09/30 10:40:19;;;;;;;6.70;2.10;;;;;;;20.86;39.11;101501.59;117074;1188;21882;-78
2021/09/30 10:42:57;;;;;;;5.80;1.60;;;;;;;20.80;38.64;101500.65;117107;1188;21893;-79
2021/09/30 10:45:40;;;;;;;3.90;1.80;;;;;;;20.56;38.92;101502.55;116979;1188;21878;-78
2021/09/30 10:48:45;;;;;;;4.50;1.40;;;;;;;20.45;39.59;101499.53;117001;1188;21943;-78
2021/09/30 10:51:18;;;;;;;5.10;1.70;;;;;;;20.59;40.26;101497.08;116789;1187;21882;-77
2021/09/30 10:53:47;;;;;;;5.30;1.90;;;;;;;20.82;40.12;101494.40;116882;1190;24218;-78
2021/09/30 10:56:31;;;;;;;4.70;1.80;;;;;;;20.93;39.43;101493.12;116870;1191;23440;-77
2021/09/30 10:59:09;;;;;;;4.10;1.90;;;;;;;20.91;38.92;101492.29;116853;1191;22024;-77
2021/09/30 11:02:09;;;;;;;7.50;2.30;;;;;;;20.83;38.76;101492.63;116766;1191;21901;-77
2021/09/30 11:05:05;;;;;;;8.00;2.30;;;;;;;20.59;38.46;101491.02;116404;1194;21894;-77
2021/09/30 11:07:38;;;;;;;4.00;1.50;;;;;;;20.32;38.82;101490.05;116351;1194;24227;-76
2021/09/30 11:10:22;;;;;;;4.20;1.70;;;;;;;20.08;39.04;101489.45;116362;1194;21900;-77
2021/09/30 11:13:22;;;;;;;5.60;1.40;;;;;;;19.75;39.12;101490.52;116373;1194;22622;-77
2021/09/30 11:16:20;;;;;;;3.30;1.70;;;;;;;19.35;39.52;101492.90;116228;1196;22860;-77
2021/09/30 11:18:55;;;;;;;4.00;1.30;;;;;;;19.04;40.16;101494.29;116104;1193;21904;-77
2021/09/30 11:21:30;;;;;;;4.70;1.70;;;;;;;18.78;40.56;101492.23;116170;1198;21916;-77
2021/09/30 11:24:18;;;;;;;5.70;1.60;;;;;;;18.52;40.55;101490.69;116055;1198;21908;-77
2021/09/30 11:26:53;;;;;;;4.80;1.50;;;;;;;18.23;40.93;101490.25;116083;1196;21961;-77
2021/09/30 11:29:22;;;;;;;6.70;2.30;;;;;;;18.04;41.58;101491.56;116134;1196;21901;-77
2021/09/30 11:31:54;;;;;;;7.10;2.00;;;;;;;17.94;42.05;101489.02;116237;1196;21915;-77
2021/09/30 11:34:30;;;;;;;4.40;1.80;;;;;;;17.81;42.23;101489.90;116262;1194;21897;-77
2021/09/30 11:37:13;;;;;;;5.50;2.70;;;;;;;17.66;42.38;101483.45;116436;1195;22092;-77
2021/09/30 11:39:45;;;;;;;5.60;2.10;;;;;;;17.53;42.67;101486.45;116637;1191;22629;-78
2021/09/30 11:42:14;;;;;;;5.30;1.80;;;;;;;17.40;42.82;101487.02;116900;1188;21909;-76
2021/09/30 11:45:03;;;;;;;3.30;1.80;;;;;;;17.34;43.39;101487.55;117100;1188;21899;-77
2021/09/30 11:47:32;;;;;;;5.70;2.10;;;;;;;17.34;43.46;101492.15;117252;1188;22917;-77
2021/09/30 11:50:06;;;;;;;9.80;1.90;;;;;;;17.33;43.47;101486.58;117198;1188;21905;-77
2021/09/30 11:52:35;;;;;;;4.10;1.20;;;;;;;17.33;43.55;101489.91;117140;1188;23633;-77
2021/09/30 11:55:15;;;;;;;7.00;1.30;;;;;;;17.31;43.32;101491.13;117571;1184;22899;-77
2021/09/30 11:58:14;;;;;;;4.30;1.20;;;;;;;17.26;43.23;101494.90;117176;1184;21891;-76
2021/09/30 12:00:46;;;;;;;3.40;1.20;;;;;;;17.20;43.35;101488.17;117196;1175;21878;-76
2021/09/30 12:03:21;;;;;;;3.70;1.30;;;;;;;17.20;43.44;101493.80;117162;1177;21865;-76
2021/09/30 12:05:54;;;;;;;2.50;1.30;;;;;;;17.21;43.15;101493.20;117161;1188;22207;-76
2021/09/30 12:08:24;;;;;;;6.80;1.60;;;;;;;17.19;42.98;101492.38;117200;1188;23431;-76
2021/09/30 12:11:00;;;;;;;7.60;2.20;;;;;;;17.17;42.91;101494.21;117116;1188;21951;-75
2021/09/30 12:13:29;;;;;;;4.10;1.50;;;;;;;17.10;42.65;101493.55;117224;1188;21879;-76
2021/09/30 12:16:10;;;;;;;2.50;1.20;;;;;;;17.08;43.03;101492.44;117190;1188;21911;-77
2021/09/30 12:18:39;;;;;;;5.50;2.00;;;;;;;17.09;43.30;101491.55;117130;1186;21918;-77
2021/09/30 12:21:09;;;;;;;3.10;1.30;;;;;;;17.13;43.51;101499.58;117048;1189;22930;-77
2021/09/30 12:23:38;;;;;;;3.30;1.20;;;;;;;17.18;43.53;101499.77;116819;1190;24918;-76
2021/09/30 12:26:14;;;;;;;4.40;1.60;;;;;;;17.18;43.23;101497.45;116774;1192;22969;-76
2021/09/30 12:28:46;;;;;;;5.30;1.20;;;;;;;17.15;43.15;101496.20;116772;1192;22753;-77
2021/09/30 12:31:16;;;;;;;7.70;1.60;;;;;;;17.11;43.13;101496.71;116669;1192;22849;-77
2021/09/30 12:33:46;;;;;;;4.30;1.30;;;;;;;17.11;43.29;101498.31;116762;1192;21905;-77
2021/09/30 12:36:17;;;;;;;5.30;1.60;;;;;;;17.10;43.13;101496.86;116789;1192;23441;-76
2021/09/30 12:39:03;;;;;;;4.10;1.30;;;;;;;17.08;43.14;101495.84;116797;1190;23757;-76
2021/09/30 12:41:33;;;;;;;5.20;1.40;;;;;;;17.06;43.13;101495.86;116927;1190;21894;-76
2021/09/30 12:44:12;;;;;;;4.70;1.60;;;;;;;17.06;43.21;101493.69;117083;1184;21882;-77
2021/09/30 12:46:50;;;;;;;4.90;1.60;;;;;;;17.09;43.30;101496.20;117220;1184;23970;-76
2021/09/30 12:49:19;;;;;;;4.90;1.60;;;;;;;17.12;43.04;101498.58;117148;1187;24211;-77
2021/09/30 12:51:48;;;;;;;4.90;1.70;;;;;;;17.14;42.78;101491.91;117168;1187;21895;-77
2021/09/30 12:54:26;;;;;;;4.10;1.60;;;;;;;17.17;42.71;101488.46;117255;1187;23426;-77
2021/09/30 12:57:11;;;;;;;5.20;1.50;;;;;;;17.23;42.87;101494.95;117222;1187;21903;-77
2021/09/30 13:00:12;;;;;;;3.70;1.00;;;;;;;17.25;42.65;101496.27;117186;1187;22642;-79
2021/09/30 13:02:48;;;;;;;6.70;1.60;;;;;;;17.23;42.54;101492.04;117081;1177;21892;-78
2021/09/30 13:05:17;;;;;;;2.90;1.30;;;;;;;17.19;42.64;101493.05;117196;1188;21891;-79
2021/09/30 13:07:57;;;;;;;6.20;1.30;;;;;;;17.16;42.63;101495.36;117178;1188;21922;-80
2021/09/30 13:10:34;;;;;;;4.00;1.30;;;;;;;17.12;42.35;101491.19;117272;1187;23536;-78
2021/09/30 13:13:15;;;;;;;5.30;1.00;;;;;;;17.10;42.28;101491.67;117210;1184;21891;-79
2021/09/30 13:15:46;;;;;;;3.30;1.10;;;;;;;17.06;42.32;101494.13;117023;1188;22853;-77
2021/09/30 13:18:16;;;;;;;5.30;1.10;;;;;;;16.99;42.03;101497.30;117158;1185;21907;-78
2021/09/30 13:21:07;;;;;;;4.30;1.60;;;;;;;16.87;41.91;101496.34;117121;1187;23465;-79
2021/09/30 13:23:42;;;;;;;6.40;1.30;;;;;;;16.74;42.12;101495.51;117236;1187;21877;-79
2021/09/30 13:26:11;;;;;;;6.30;2.20;;;;;;;16.67;42.41;101498.08;117229;1187;22976;-79
2021/09/30 13:28:40;;;;;;;5.60;2.40;;;;;;;16.64;42.57;101498.48;117134;1187;21885;-79
2021/09/30 13:31:10;;;;;;;2.20;1.20;;;;;;;16.59;42.56;101496.92;117274;1188;22889;-78
2021/09/30 13:33:39;;;;;;;3.60;2.00;;;;;;;16.54;42.50;101495.59;117267;1184;21888;-79
2021/09/30 13:36:09;;;;;;;4.80;1.80;;;;;;;16.49;42.45;101495.30;117358;1187;21886;-80
2021/09/30 13:38:38;;;;;;;5.30;2.10;;;;;;;16.46;42.55;101494.11;117543;1188;23491;-78
2021/09/30 13:41:08;;;;;;;6.60;2.10;;;;;;;16.45;42.70;101496.90;117337;1187;21881;-78
2021/09/30 13:43:37;;;;;;;8.20;2.40;;;;;;;16.45;42.70;101494.84;117266;1184;23438;-79
2021/09/30 13:46:06;;;;;;;10.40;1.90;;;;;;;16.44;42.58;101492.98;117037;1187;21993;-79
2021/09/30 13:48:35;;;;;;;4.00;1.00;;;;;;;16.41;42.43;101494.39;117204;1187;23533;-78
2021/09/30 13:51:05;;;;;;;7.00;3.80;;;;;;;16.37;42.39;101491.29;117222;1187;22924;-78
2021/09/30 13:53:34;;;;;;;4.80;3.00;;;;;;;16.36;42.49;101489.46;117233;1184;21906;-78
2021/09/30 13:56:04;;;;;;;3.50;1.90;;;;;;;16.37;42.49;101486.83;117198;1187;21881;-79
2021/09/30 13:58:35;;;;;;;6.70;2.00;;;;;;;16.38;42.28;101485.89;117130;1187;22300;-79
2021/09/30 14:01:05;;;;;;;4.90;1.40;;;;;;;16.37;42.26;101482.63;117212;1187;21878;-79
2021/09/30 14:03:35;;;;;;;3.90;1.20;;;;;;;16.36;42.30;101482.08;117131;1187;21883;-79
2021/09/30 14:06:04;;;;;;;3.70;1.40;;;;;;;16.37;42.51;101479.83;117241;1187;22618;-78
2021/09/30 14:08:34;;;;;;;5.70;1.70;;;;;;;16.36;42.50;101478.60;117248;1187;21890;-78
2021/09/30 14:11:03;;;;;;;2.50;0.80;;;;;;;16.34;42.19;101480.12;117184;1188;22874;-78
2021/09/30 14:13:35;;;;;;;4.40;1.00;;;;;;;16.30;42.01;101481.23;117116;1184;22903;-79
2021/09/30 14:16:05;;;;;;;4.30;1.10;;;;;;;16.27;41.97;101481.96;117121;1187;21919;-80
2021/09/30 14:18:35;;;;;;;7.10;1.40;;;;;;;16.26;41.88;101485.30;117010;1187;21924;-80
2021/09/30 14:21:06;;;;;;;7.20;2.00;;;;;;;16.24;41.79;101485.15;117003;1187;21963;-80
2021/09/30 14:23:35;;;;;;;6.70;1.20;;;;;;;16.21;41.56;101481.56;117160;1181;21933;-80
2021/09/30 14:26:04;;;;;;;4.40;1.40;;;;;;;16.17;41.44;101481.33;117295;1187;23473;-80
2021/09/30 14:28:34;;;;;;;5.20;1.20;;;;;;;16.15;41.54;101480.15;117100;1188;21877;-80
2021/09/30 14:31:04;;;;;;;3.70;1.20;;;;;;;16.15;41.58;101479.35;117372;1187;21892;-80
2021/09/30 14:33:33;;;;;;;3.10;1.30;;;;;;;16.13;41.53;101481.80;117134;1188;24133;-80